createdAt,value
2019-01-25T00:04:39.970Z,24.53
2019-01-25T00:09:45.164Z,26.27
2019-01-25T00:14:50.964Z,25.40
2019-01-25T00:19:56.301Z,26.30
2019-01-25T00:25:01.603Z,25.80
2019-01-25T00:30:09.088Z,26.23
2019-01-25T00:35:14.333Z,27.30
2019-01-25T00:40:21.276Z,26.97
2019-01-25T00:45:26.478Z,25.93
2019-01-25T00:50:31.780Z,25.13
2019-01-25T00:55:37.149Z,26.97
2019-01-25T01:00:42.656Z,27.30
2019-01-25T01:05:48.246Z,26.43
2019-01-25T01:10:53.493Z,26.03
2019-01-25T01:15:58.693Z,27.07
2019-01-25T01:21:04.369Z,25.70
2019-01-25T01:26:10.557Z,26.37
2019-01-25T01:31:15.769Z,26.80
2019-01-25T01:36:21.372Z,26.03
2019-01-25T01:41:26.931Z,27.73
2019-01-25T01:46:33.104Z,26.43
2019-01-25T01:51:39.670Z,27.23
2019-01-25T01:56:45.405Z,25.97
2019-01-25T02:01:50.930Z,27.73
2019-01-25T02:06:57.309Z,26.17
2019-01-25T02:12:02.923Z,24.70
2019-01-25T02:17:08.478Z,27.10
2019-01-25T02:22:13.726Z,27.37
2019-01-25T02:27:19.071Z,25.47
2019-01-25T02:32:25.435Z,25.83
2019-01-25T02:37:30.642Z,26.50
2019-01-25T02:42:36.161Z,25.53
2019-01-25T02:47:41.706Z,27.33
2019-01-25T02:52:47.307Z,26.17
2019-01-25T02:57:53.598Z,28.00
2019-01-25T03:02:58.792Z,25.90
2019-01-25T03:08:04.003Z,26.57
2019-01-25T03:13:09.209Z,27.37
2019-01-25T03:18:15.122Z,26.80
2019-01-25T03:23:20.332Z,27.10
2019-01-25T03:28:25.547Z,26.60
2019-01-25T03:33:30.744Z,27.00
2019-01-25T03:38:36.338Z,27.17
2019-01-25T03:43:41.531Z,27.43
2019-01-25T03:48:47.229Z,27.63
2019-01-25T03:53:52.550Z,28.57
2019-01-25T03:58:58.088Z,27.87
2019-01-25T04:04:03.293Z,28.53
2019-01-25T04:09:10.839Z,28.87
2019-01-25T04:14:16.052Z,27.60
2019-01-25T04:19:21.592Z,27.90
2019-01-25T04:24:26.838Z,27.37
2019-01-25T04:29:32.046Z,29.50
2019-01-25T04:34:37.352Z,29.50
2019-01-25T04:39:42.968Z,29.43
2019-01-25T04:44:48.293Z,28.57
2019-01-25T04:49:53.908Z,28.37
2019-01-25T04:55:01.581Z,29.40
2019-01-25T05:00:08.333Z,27.33
2019-01-25T05:05:14.070Z,28.17
2019-01-25T05:10:19.274Z,28.37
2019-01-25T05:15:25.342Z,28.07
2019-01-25T05:20:30.864Z,28.30
2019-01-25T05:25:36.436Z,29.27
2019-01-25T05:30:51.229Z,28.60
2019-01-25T05:35:56.523Z,27.97
2019-01-25T05:41:01.847Z,29.00
2019-01-25T05:46:07.086Z,27.67
2019-01-25T05:51:12.704Z,26.80
2019-01-25T05:56:17.909Z,28.57
2019-01-25T06:01:23.086Z,29.07
2019-01-25T06:06:28.279Z,28.80
2019-01-25T06:11:37.978Z,29.93
2019-01-25T06:16:43.665Z,27.37
2019-01-25T06:21:50.551Z,27.33
2019-01-25T06:26:55.750Z,27.90
2019-01-25T06:32:01.410Z,28.77
2019-01-25T06:37:06.613Z,28.80
2019-01-25T06:42:11.864Z,27.23
2019-01-25T06:47:17.150Z,28.57
2019-01-25T06:52:22.683Z,27.00
2019-01-25T06:57:43.451Z,27.40
2019-01-25T07:02:49.179Z,28.33
2019-01-25T07:07:54.385Z,28.03
2019-01-25T07:12:59.570Z,28.43
2019-01-25T07:18:04.788Z,27.67
2019-01-25T07:23:09.987Z,26.97
2019-01-25T07:28:15.235Z,29.57
2019-01-25T07:33:20.539Z,27.93
2019-01-25T07:38:25.803Z,28.17
2019-01-25T07:43:31.471Z,28.07
2019-01-25T07:48:37.130Z,29.97
2019-01-25T07:53:42.436Z,28.77
2019-01-25T07:58:47.946Z,30.33
2019-01-25T08:03:53.219Z,28.47
2019-01-25T08:08:58.831Z,33.37
2019-01-25T08:14:04.379Z,32.43
2019-01-25T08:19:09.661Z,29.87
2019-01-25T08:24:14.848Z,29.67
2019-01-25T08:29:27.673Z,29.53
2019-01-25T08:34:27.260Z,29.43
2019-01-25T08:39:33.348Z,28.80
2019-01-25T08:44:38.543Z,34.03
2019-01-25T08:49:45.065Z,33.47
2019-01-25T08:54:50.497Z,31.57
2019-01-25T08:59:56.475Z,32.33
2019-01-25T09:05:02.075Z,30.80
2019-01-25T09:10:10.072Z,30.73
2019-01-25T09:15:22.480Z,31.00
2019-01-25T09:20:28.560Z,31.60
2019-01-25T09:25:34.328Z,31.13
2019-01-25T09:30:39.922Z,30.43
2019-01-25T09:35:45.107Z,30.87
2019-01-25T09:40:50.412Z,32.17
2019-01-25T09:45:55.618Z,31.57
2019-01-25T09:51:00.804Z,31.83
2019-01-25T09:56:07.449Z,32.37
2019-01-25T10:01:13.831Z,33.40
2019-01-25T10:06:19.272Z,31.87
2019-01-25T10:11:24.530Z,32.87
2019-01-25T10:16:30.223Z,32.70
2019-01-25T10:21:35.448Z,34.83
2019-01-25T10:26:40.691Z,33.77
2019-01-25T10:31:45.871Z,34.83
2019-01-25T10:36:51.461Z,34.60
2019-01-25T10:41:57.175Z,34.83
2019-01-25T10:47:03.620Z,32.37
2019-01-25T10:52:09.215Z,34.27
2019-01-25T10:57:15.516Z,34.50
2019-01-25T11:02:21.488Z,33.63
2019-01-25T11:07:26.722Z,33.97
2019-01-25T11:12:31.926Z,34.77
2019-01-25T11:17:37.124Z,33.37
2019-01-25T11:22:42.360Z,34.27
2019-01-25T11:27:47.797Z,34.60
2019-01-25T11:32:54.103Z,35.10
2019-01-25T11:37:59.295Z,34.33
2019-01-25T11:43:08.912Z,34.90
2019-01-25T11:48:14.545Z,34.93
2019-01-25T11:53:19.931Z,35.47
2019-01-25T11:58:25.115Z,33.03
2019-01-25T12:03:30.390Z,34.13
2019-01-25T12:08:36.967Z,32.77
2019-01-25T12:13:42.492Z,35.43
2019-01-25T12:18:48.036Z,33.90
2019-01-25T12:23:53.351Z,33.87
2019-01-25T12:28:58.562Z,33.00
2019-01-25T12:34:03.743Z,32.33
2019-01-25T12:39:10.363Z,34.63
2019-01-25T12:44:15.517Z,35.03
2019-01-25T12:49:21.490Z,34.60
2019-01-25T12:54:26.719Z,33.60
2019-01-25T12:59:33.525Z,32.20
2019-01-25T13:04:38.729Z,33.60
2019-01-25T13:09:44.295Z,33.40
2019-01-25T13:14:49.503Z,34.70
2019-01-25T13:19:55.044Z,32.70
2019-01-25T13:25:01.646Z,32.60
2019-01-25T13:30:10.772Z,32.43
2019-01-25T13:35:17.464Z,29.97
2019-01-25T13:40:23.611Z,32.10
2019-01-25T13:45:28.798Z,26.07
2019-01-25T13:50:34.056Z,24.33
2019-01-25T13:55:39.732Z,22.07
2019-01-25T14:00:45.367Z,22.13
2019-01-25T14:05:50.566Z,22.63
2019-01-25T14:10:55.922Z,26.67
2019-01-25T14:16:01.248Z,24.00
2019-01-25T14:21:07.171Z,26.03
2019-01-25T14:26:13.278Z,23.40
2019-01-25T14:31:20.492Z,22.10
2019-01-25T14:36:27.577Z,20.07
2019-01-25T14:41:33.154Z,19.90
2019-01-25T14:46:39.955Z,21.93
2019-01-25T14:51:45.715Z,17.73
2019-01-25T14:56:53.262Z,17.87
2019-01-25T15:02:00.579Z,18.03
2019-01-25T15:07:07.763Z,17.67
2019-01-25T15:12:16.435Z,16.27
2019-01-25T15:17:24.060Z,16.73
2019-01-25T15:22:32.482Z,17.27
2019-01-25T15:27:41.239Z,15.20
2019-01-25T15:32:48.267Z,14.43
2019-01-25T15:37:55.741Z,12.83
2019-01-25T15:43:04.265Z,13.03
2019-01-25T15:48:11.740Z,14.23
2019-01-25T15:53:19.420Z,14.00
2019-01-25T15:58:27.879Z,15.43
2019-01-25T16:03:37.103Z,14.50
2019-01-25T16:08:45.237Z,15.67
2019-01-25T16:13:53.704Z,14.80
2019-01-25T16:19:01.607Z,14.80
2019-01-25T16:24:09.877Z,14.80
2019-01-25T16:29:19.369Z,14.27
2019-01-25T16:34:27.251Z,14.93
2019-01-25T16:39:35.326Z,15.57
2019-01-25T16:44:43.674Z,17.03
2019-01-25T16:49:51.685Z,17.23
2019-01-25T16:54:59.610Z,16.73
2019-01-25T17:00:14.159Z,18.60
2019-01-25T17:05:22.667Z,22.83
2019-01-25T17:10:28.414Z,24.17
2019-01-25T17:15:34.079Z,25.47
2019-01-25T17:20:39.332Z,23.17
2019-01-25T17:25:44.540Z,21.00
2019-01-25T17:30:53.573Z,22.10
2019-01-25T17:36:01.836Z,23.57
2019-01-25T17:41:10.424Z,24.57
2019-01-25T17:46:18.559Z,21.03
2019-01-25T17:51:27.685Z,23.27
2019-01-25T17:56:35.765Z,23.93
2019-01-25T18:01:44.135Z,23.17
2019-01-25T18:06:52.350Z,25.43
2019-01-25T18:12:00.516Z,21.37
2019-01-25T18:17:08.762Z,24.50
2019-01-25T18:22:16.423Z,21.37
2019-01-25T18:27:25.802Z,21.30
2019-01-25T18:32:34.871Z,20.33
2019-01-25T18:37:44.149Z,20.40
2019-01-25T18:42:53.995Z,18.40
2019-01-25T18:48:04.168Z,19.77
2019-01-25T18:53:13.529Z,29.80
2019-01-25T18:58:22.310Z,20.47
2019-01-25T19:03:31.482Z,26.40
2019-01-25T19:08:40.981Z,24.13
2019-01-25T19:13:51.099Z,19.40
2019-01-25T19:19:01.342Z,24.43
2019-01-25T19:24:11.081Z,18.47
2019-01-25T19:29:20.883Z,18.13
2019-01-25T19:34:29.999Z,19.70
2019-01-25T19:39:39.798Z,21.23
2019-01-25T19:44:49.515Z,20.27
2019-01-25T19:49:57.988Z,18.07
2019-01-25T19:55:09.503Z,19.30
2019-01-25T20:00:25.599Z,17.73
2019-01-25T20:05:34.191Z,16.67
2019-01-25T20:10:45.578Z,16.50
2019-01-25T20:15:54.276Z,16.70
2019-01-25T20:21:03.507Z,16.23
2019-01-25T20:26:12.550Z,16.73
2019-01-25T20:31:21.610Z,15.20
2019-01-25T20:36:31.449Z,15.57
2019-01-25T20:41:40.858Z,17.60
2019-01-25T20:46:49.847Z,17.83
2019-01-25T20:51:59.100Z,16.80
2019-01-25T20:57:08.642Z,16.43
2019-01-25T21:02:19.526Z,17.37
2019-01-25T21:07:27.928Z,15.57
2019-01-25T21:12:36.578Z,15.80
2019-01-25T21:17:45.863Z,17.03
2019-01-25T21:22:55.405Z,17.60
2019-01-25T21:28:05.773Z,18.97
2019-01-25T21:33:15.062Z,17.67
2019-01-25T21:38:23.880Z,18.27
2019-01-25T21:43:34.175Z,18.80
2019-01-25T21:48:42.574Z,19.03
2019-01-25T21:53:51.263Z,18.67
2019-01-25T21:58:59.611Z,19.20
2019-01-25T22:04:07.125Z,19.20
2019-01-25T22:09:15.119Z,18.67
2019-01-25T22:14:22.285Z,19.83
2019-01-25T22:19:29.474Z,18.93
2019-01-25T22:24:36.637Z,20.37
2019-01-25T22:29:44.656Z,21.03
2019-01-25T22:34:51.758Z,24.27
2019-01-25T22:39:58.780Z,20.30
2019-01-25T22:45:04.963Z,22.00
2019-01-25T22:50:14.571Z,22.77
2019-01-25T22:55:20.119Z,22.13
2019-01-25T23:01:18.131Z,25.33
2019-01-25T23:06:48.738Z,23.67
2019-01-25T23:11:54.228Z,22.87
2019-01-25T23:16:59.518Z,22.77
2019-01-25T23:22:05.048Z,22.87
2019-01-25T23:27:10.615Z,22.60
2019-01-25T23:32:15.807Z,21.60
2019-01-25T23:37:21.302Z,21.37
2019-01-25T23:42:26.820Z,20.37
2019-01-25T23:47:32.125Z,19.77
2019-01-25T23:52:38.597Z,19.67
2019-01-25T23:57:43.783Z,18.80
